sensor_id;sensor_type;location;lat;lon;timestamp;temperature;humidity
14057;DHT22;7103;54.300;10.180;2023-02-08T00:00:45;-1.40;99.90
14057;DHT22;7103;54.300;10.180;2023-02-08T00:03:12;-1.30;99.90
14057;DHT22;7103;54.300;10.180;2023-02-08T00:05:39;-1.30;99.90
14057;DHT22;7103;54.300;10.180;2023-02-08T00:08:06;-1.20;99.90
14057;DHT22;7103;54.300;10.180;2023-02-08T00:10:33;-1.20;99.90
14057;DHT22;7103;54.300;10.180;2023-02-08T00:13:02;-1.20;99.90
14057;DHT22;7103;54.300;10.180;2023-02-08T00:15:28;-1.10;99.90
14057;DHT22;7103;54.300;10.180;2023-02-08T00:17:55;-1.20;99.90
14057;DHT22;7103;54.300;10.180;2023-02-08T00:20:22;-1.20;99.90
14057;DHT22;7103;54.300;10.180;2023-02-08T00:22:49;-1.20;99.90
14057;DHT22;7103;54.300;10.180;2023-02-08T00:25:18;-1.20;99.90
14057;DHT22;7103;54.300;10.180;2023-02-08T00:27:45;-1.20;99.90
14057;DHT22;7103;54.300;10.180;2023-02-08T00:30:12;-1.20;99.90
14057;DHT22;7103;54.300;10.180;2023-02-08T00:32:39;-1.10;99.90
14057;DHT22;7103;54.300;10.180;2023-02-08T00:35:06;-1.10;99.90
14057;DHT22;7103;54.300;10.180;2023-02-08T00:37:33;-1.10;99.90
14057;DHT22;7103;54.300;10.180;2023-02-08T00:40:00;-1.00;99.90
14057;DHT22;7103;54.300;10.180;2023-02-08T00:42:28;-1.00;99.90
14057;DHT22;7103;54.300;10.180;2023-02-08T00:44:56;-1.00;99.90
14057;DHT22;7103;54.300;10.180;2023-02-08T00:47:23;-1.00;99.90
14057;DHT22;7103;54.300;10.180;2023-02-08T00:49:50;-1.00;99.90
14057;DHT22;7103;54.300;10.180;2023-02-08T00:52:18;-1.00;99.90
14057;DHT22;7103;54.300;10.180;2023-02-08T00:54:45;-1.00;99.90
14057;DHT22;7103;54.300;10.180;2023-02-08T00:57:12;-1.00;99.90
14057;DHT22;7103;54.300;10.180;2023-02-08T00:59:39;-1.00;99.90
14057;DHT22;7103;54.300;10.180;2023-02-08T01:02:06;-1.00;99.90
14057;DHT22;7103;54.300;10.180;2023-02-08T01:04:33;-1.00;99.90
14057;DHT22;7103;54.300;10.180;2023-02-08T01:07:00;-0.90;99.90
14057;DHT22;7103;54.300;10.180;2023-02-08T01:09:27;-0.80;99.90
14057;DHT22;7103;54.300;10.180;2023-02-08T01:11:54;-0.80;99.90
14057;DHT22;7103;54.300;10.180;2023-02-08T01:14:20;-0.80;99.90
14057;DHT22;7103;54.300;10.180;2023-02-08T01:16:47;-0.80;99.90
14057;DHT22;7103;54.300;10.180;2023-02-08T01:19:15;-0.90;99.90
14057;DHT22;7103;54.300;10.180;2023-02-08T01:21:43;-1.00;99.90
14057;DHT22;7103;54.300;10.180;2023-02-08T01:24:10;-1.00;99.90
14057;DHT22;7103;54.300;10.180;2023-02-08T01:26:38;-1.00;99.90
14057;DHT22;7103;54.300;10.180;2023-02-08T01:29:05;-0.90;99.90
14057;DHT22;7103;54.300;10.180;2023-02-08T01:31:35;-0.90;99.90
14057;DHT22;7103;54.300;10.180;2023-02-08T01:34:02;-0.90;99.90
14057;DHT22;7103;54.300;10.180;2023-02-08T01:36:31;-0.90;99.90
14057;DHT22;7103;54.300;10.180;2023-02-08T01:38:58;-0.90;99.90
14057;DHT22;7103;54.300;10.180;2023-02-08T01:41:31;-0.90;99.90
14057;DHT22;7103;54.300;10.180;2023-02-08T01:46:52;-1.00;99.90
14057;DHT22;7103;54.300;10.180;2023-02-08T01:54:21;-0.90;99.90
14057;DHT22;7103;54.300;10.180;2023-02-08T01:56:49;-0.90;99.90
14057;DHT22;7103;54.300;10.180;2023-02-08T01:59:20;-1.00;99.90
14057;DHT22;7103;54.300;10.180;2023-02-08T02:01:50;-1.10;99.90
14057;DHT22;7103;54.300;10.180;2023-02-08T02:04:18;-1.20;99.90
14057;DHT22;7103;54.300;10.180;2023-02-08T02:06:49;-1.10;99.90
14057;DHT22;7103;54.300;10.180;2023-02-08T02:09:40;-1.10;99.90
14057;DHT22;7103;54.300;10.180;2023-02-08T02:12:08;-1.10;99.90
14057;DHT22;7103;54.300;10.180;2023-02-08T02:14:37;-1.10;99.90
14057;DHT22;7103;54.300;10.180;2023-02-08T02:17:05;-1.10;99.90
14057;DHT22;7103;54.300;10.180;2023-02-08T02:36:57;-1.20;99.90
14057;DHT22;7103;54.300;10.180;2023-02-08T02:39:49;-1.20;99.90
14057;DHT22;7103;54.300;10.180;2023-02-08T02:48:16;-1.40;99.90
14057;DHT22;7103;54.300;10.180;2023-02-08T02:56:01;-1.30;99.90
14057;DHT22;7103;54.300;10.180;2023-02-08T02:58:31;-1.40;99.90
14057;DHT22;7103;54.300;10.180;2023-02-08T03:00:59;-1.40;99.90
14057;DHT22;7103;54.300;10.180;2023-02-08T03:03:27;-1.40;99.10
14057;DHT22;7103;54.300;10.180;2023-02-08T03:06:02;-1.50;97.10
14057;DHT22;7103;54.300;10.180;2023-02-08T03:11:38;-1.20;99.90
14057;DHT22;7103;54.300;10.180;2023-02-08T03:19:51;-1.10;69.90
14057;DHT22;7103;54.300;10.180;2023-02-08T03:22:42;-1.10;60.30
14057;DHT22;7103;54.300;10.180;2023-02-08T03:25:22;-1.10;45.40
14057;DHT22;7103;54.300;10.180;2023-02-08T03:28:00;-1.20;37.10
14057;DHT22;7103;54.300;10.180;2023-02-08T03:30:38;-1.20;34.10
14057;DHT22;7103;54.300;10.180;2023-02-08T03:33:20;-1.20;30.40
14057;DHT22;7103;54.300;10.180;2023-02-08T03:35:54;-1.10;35.50
14057;DHT22;7103;54.300;10.180;2023-02-08T03:38:43;-1.10;18.60
14057;DHT22;7103;54.300;10.180;2023-02-08T03:41:14;-1.10;14.50
14057;DHT22;7103;54.300;10.180;2023-02-08T03:43:46;-1.20;14.60
14057;DHT22;7103;54.300;10.180;2023-02-08T03:46:22;-1.20;14.40
14057;DHT22;7103;54.300;10.180;2023-02-08T03:49:06;-1.20;14.40
14057;DHT22;7103;54.300;10.180;2023-02-08T03:51:35;-1.20;8.30
14057;DHT22;7103;54.300;10.180;2023-02-08T03:54:10;-1.10;10.30
14057;DHT22;7103;54.300;10.180;2023-02-08T03:56:53;-1.20;1.00
14057;DHT22;7103;54.300;10.180;2023-02-08T03:59:26;-1.20;1.00
14057;DHT22;7103;54.300;10.180;2023-02-08T04:01:58;-1.20;1.00
14057;DHT22;7103;54.300;10.180;2023-02-08T04:04:28;-1.10;1.00
14057;DHT22;7103;54.300;10.180;2023-02-08T04:06:56;-1.00;1.00
14057;DHT22;7103;54.300;10.180;2023-02-08T04:09:23;-1.10;1.00
14057;DHT22;7103;54.300;10.180;2023-02-08T04:11:50;-1.10;1.00
14057;DHT22;7103;54.300;10.180;2023-02-08T04:14:17;-1.10;1.00
14057;DHT22;7103;54.300;10.180;2023-02-08T04:16:44;-1.10;1.00
14057;DHT22;7103;54.300;10.180;2023-02-08T04:19:11;-1.20;1.00
14057;DHT22;7103;54.300;10.180;2023-02-08T04:21:38;-1.30;1.00
14057;DHT22;7103;54.300;10.180;2023-02-08T04:24:05;-1.40;1.00
14057;DHT22;7103;54.300;10.180;2023-02-08T04:26:32;-1.40;1.00
14057;DHT22;7103;54.300;10.180;2023-02-08T04:28:59;-1.30;1.00
14057;DHT22;7103;54.300;10.180;2023-02-08T04:31:25;-1.40;1.00
14057;DHT22;7103;54.300;10.180;2023-02-08T04:33:52;-1.40;1.00
14057;DHT22;7103;54.300;10.180;2023-02-08T04:36:19;-1.40;1.00
14057;DHT22;7103;54.300;10.180;2023-02-08T04:38:46;-1.50;1.00
14057;DHT22;7103;54.300;10.180;2023-02-08T04:41:13;-1.60;4.90
14057;DHT22;7103;54.300;10.180;2023-02-08T04:43:40;-1.60;3.70
14057;DHT22;7103;54.300;10.180;2023-02-08T04:46:07;-1.70;7.10
14057;DHT22;7103;54.300;10.180;2023-02-08T04:48:34;-1.70;7.90
14057;DHT22;7103;54.300;10.180;2023-02-08T04:51:01;-1.70;14.00
14057;DHT22;7103;54.300;10.180;2023-02-08T04:53:27;-1.80;14.00
14057;DHT22;7103;54.300;10.180;2023-02-08T04:55:54;-1.80;14.10
14057;DHT22;7103;54.300;10.180;2023-02-08T04:58:21;-1.90;13.90
14057;DHT22;7103;54.300;10.180;2023-02-08T05:00:48;-1.90;13.90
14057;DHT22;7103;54.300;10.180;2023-02-08T05:03:15;-1.90;13.90
14057;DHT22;7103;54.300;10.180;2023-02-08T05:05:42;-1.90;22.70
14057;DHT22;7103;54.300;10.180;2023-02-08T05:08:09;-1.90;20.20
14057;DHT22;7103;54.300;10.180;2023-02-08T05:10:36;-1.80;27.90
14057;DHT22;7103;54.300;10.180;2023-02-08T05:13:03;-1.80;30.30
14057;DHT22;7103;54.300;10.180;2023-02-08T05:15:30;-1.80;24.20
14057;DHT22;7103;54.300;10.180;2023-02-08T05:17:57;-1.90;20.20
14057;DHT22;7103;54.300;10.180;2023-02-08T05:20:23;-2.00;14.00
14057;DHT22;7103;54.300;10.180;2023-02-08T05:22:50;-2.00;17.60
14057;DHT22;7103;54.300;10.180;2023-02-08T05:25:17;-2.10;19.60
14057;DHT22;7103;54.300;10.180;2023-02-08T05:27:44;-2.00;32.50
14057;DHT22;7103;54.300;10.180;2023-02-08T05:30:11;-1.90;33.00
14057;DHT22;7103;54.300;10.180;2023-02-08T05:32:38;-1.90;30.30
14057;DHT22;7103;54.300;10.180;2023-02-08T05:35:05;-2.00;29.20
14057;DHT22;7103;54.300;10.180;2023-02-08T05:37:32;-2.10;28.30
14057;DHT22;7103;54.300;10.180;2023-02-08T05:39:59;-2.20;28.50
14057;DHT22;7103;54.300;10.180;2023-02-08T05:42:26;-2.20;30.10
14057;DHT22;7103;54.300;10.180;2023-02-08T05:44:53;-2.30;35.30
14057;DHT22;7103;54.300;10.180;2023-02-08T05:47:20;-2.30;39.40
14057;DHT22;7103;54.300;10.180;2023-02-08T05:49:47;-2.20;49.00
14057;DHT22;7103;54.300;10.180;2023-02-08T05:52:14;-2.00;62.10
14057;DHT22;7103;54.300;10.180;2023-02-08T05:54:41;-2.00;57.10
14057;DHT22;7103;54.300;10.180;2023-02-08T05:57:08;-2.00;52.30
14057;DHT22;7103;54.300;10.180;2023-02-08T05:59:34;-2.10;48.00
14057;DHT22;7103;54.300;10.180;2023-02-08T06:02:01;-2.20;47.10
14057;DHT22;7103;54.300;10.180;2023-02-08T06:04:28;-2.20;48.20
14057;DHT22;7103;54.300;10.180;2023-02-08T06:06:55;-2.30;45.20
14057;DHT22;7103;54.300;10.180;2023-02-08T06:09:22;-2.40;41.90
14057;DHT22;7103;54.300;10.180;2023-02-08T06:11:49;-2.50;39.80
14057;DHT22;7103;54.300;10.180;2023-02-08T06:14:16;-2.70;37.80
14057;DHT22;7103;54.300;10.180;2023-02-08T06:16:42;-2.70;38.10
14057;DHT22;7103;54.300;10.180;2023-02-08T06:19:09;-2.70;42.60
14057;DHT22;7103;54.300;10.180;2023-02-08T06:21:36;-2.70;47.90
14057;DHT22;7103;54.300;10.180;2023-02-08T06:24:03;-2.80;50.10
14057;DHT22;7103;54.300;10.180;2023-02-08T06:26:32;-2.80;52.50
14057;DHT22;7103;54.300;10.180;2023-02-08T06:28:59;-2.90;54.10
14057;DHT22;7103;54.300;10.180;2023-02-08T06:31:26;-2.90;58.10
14057;DHT22;7103;54.300;10.180;2023-02-08T06:33:53;-2.80;68.50
14057;DHT22;7103;54.300;10.180;2023-02-08T06:36:20;-2.60;82.90
14057;DHT22;7103;54.300;10.180;2023-02-08T06:38:47;-2.40;92.10
14057;DHT22;7103;54.300;10.180;2023-02-08T06:41:16;-2.30;98.00
14057;DHT22;7103;54.300;10.180;2023-02-08T06:43:43;-2.20;97.00
14057;DHT22;7103;54.300;10.180;2023-02-08T06:46:10;-2.10;97.60
14057;DHT22;7103;54.300;10.180;2023-02-08T06:48:37;-2.10;94.50
14057;DHT22;7103;54.300;10.180;2023-02-08T06:51:04;-2.10;91.40
14057;DHT22;7103;54.300;10.180;2023-02-08T06:53:31;-2.10;85.20
14057;DHT22;7103;54.300;10.180;2023-02-08T06:55:58;-2.00;87.50
14057;DHT22;7103;54.300;10.180;2023-02-08T06:58:24;-1.90;84.10
14057;DHT22;7103;54.300;10.180;2023-02-08T07:00:51;-2.00;69.10
14057;DHT22;7103;54.300;10.180;2023-02-08T07:03:18;-2.10;67.50
14057;DHT22;7103;54.300;10.180;2023-02-08T07:05:45;-2.10;59.70
14057;DHT22;7103;54.300;10.180;2023-02-08T07:08:31;-2.20;57.40
14057;DHT22;7103;54.300;10.180;2023-02-08T07:10:58;-2.20;63.30
14057;DHT22;7103;54.300;10.180;2023-02-08T07:13:25;-2.10;69.10
14057;DHT22;7103;54.300;10.180;2023-02-08T07:15:52;-2.10;64.30
14057;DHT22;7103;54.300;10.180;2023-02-08T07:18:18;-2.10;64.40
14057;DHT22;7103;54.300;10.180;2023-02-08T07:20:47;-2.00;69.10
14057;DHT22;7103;54.300;10.180;2023-02-08T07:23:14;-2.00;66.00
14057;DHT22;7103;54.300;10.180;2023-02-08T07:25:40;-1.90;60.60
14057;DHT22;7103;54.300;10.180;2023-02-08T07:28:07;-2.00;53.20
14057;DHT22;7103;54.300;10.180;2023-02-08T07:30:35;-2.00;53.50
14057;DHT22;7103;54.300;10.180;2023-02-08T07:33:01;-2.00;55.00
14057;DHT22;7103;54.300;10.180;2023-02-08T07:35:28;-1.90;56.70
14057;DHT22;7103;54.300;10.180;2023-02-08T07:37:55;-1.90;54.90
14057;DHT22;7103;54.300;10.180;2023-02-08T07:40:22;-1.70;60.40
14057;DHT22;7103;54.300;10.180;2023-02-08T07:42:49;-1.70;44.00
14057;DHT22;7103;54.300;10.180;2023-02-08T07:45:15;-1.80;36.40
14057;DHT22;7103;54.300;10.180;2023-02-08T07:47:45;-1.70;37.10
14057;DHT22;7103;54.300;10.180;2023-02-08T07:50:11;-1.60;33.00
14057;DHT22;7103;54.300;10.180;2023-02-08T07:52:38;-1.50;28.90
14057;DHT22;7103;54.300;10.180;2023-02-08T07:55:07;-1.50;21.20
14057;DHT22;7103;54.300;10.180;2023-02-08T07:57:35;-1.60;14.10
14057;DHT22;7103;54.300;10.180;2023-02-08T08:00:03;-1.60;14.10
14057;DHT22;7103;54.300;10.180;2023-02-08T08:02:29;-1.50;14.20
14057;DHT22;7103;54.300;10.180;2023-02-08T08:04:56;-1.40;14.30
14057;DHT22;7103;54.300;10.180;2023-02-08T08:07:23;-1.40;14.30
14057;DHT22;7103;54.300;10.180;2023-02-08T08:09:50;-1.40;14.20
14057;DHT22;7103;54.300;10.180;2023-02-08T08:12:17;-1.40;7.30
14057;DHT22;7103;54.300;10.180;2023-02-08T08:14:44;-1.40;6.00
14057;DHT22;7103;54.300;10.180;2023-02-08T08:17:11;-1.40;6.30
14057;DHT22;7103;54.300;10.180;2023-02-08T08:19:38;-1.30;6.80
14057;DHT22;7103;54.300;10.180;2023-02-08T08:22:04;-1.30;4.00
14057;DHT22;7103;54.300;10.180;2023-02-08T08:24:31;-1.30;4.40
14057;DHT22;7103;54.300;10.180;2023-02-08T08:27:02;-1.20;1.00
14057;DHT22;7103;54.300;10.180;2023-02-08T08:29:31;-1.10;1.00
14057;DHT22;7103;54.300;10.180;2023-02-08T08:31:58;-1.10;1.00
14057;DHT22;7103;54.300;10.180;2023-02-08T08:34:25;-1.00;1.00
14057;DHT22;7103;54.300;10.180;2023-02-08T08:36:56;-1.00;1.00
14057;DHT22;7103;54.300;10.180;2023-02-08T08:39:24;-0.90;1.00
14057;DHT22;7103;54.300;10.180;2023-02-08T08:41:51;-0.90;1.00
14057;DHT22;7103;54.300;10.180;2023-02-08T08:44:18;-0.90;1.00
14057;DHT22;7103;54.300;10.180;2023-02-08T08:46:45;-0.90;1.00
14057;DHT22;7103;54.300;10.180;2023-02-08T08:49:12;-0.90;1.00
14057;DHT22;7103;54.300;10.180;2023-02-08T08:51:39;-0.80;1.00
14057;DHT22;7103;54.300;10.180;2023-02-08T08:54:06;-0.70;1.00
14057;DHT22;7103;54.300;10.180;2023-02-08T08:56:33;-0.70;1.00
14057;DHT22;7103;54.300;10.180;2023-02-08T08:59:00;-0.60;1.00
14057;DHT22;7103;54.300;10.180;2023-02-08T09:01:27;-0.60;1.00
14057;DHT22;7103;54.300;10.180;2023-02-08T09:03:54;-0.60;1.00
14057;DHT22;7103;54.300;10.180;2023-02-08T09:06:21;-0.50;1.00
14057;DHT22;7103;54.300;10.180;2023-02-08T09:08:47;-0.50;1.00
14057;DHT22;7103;54.300;10.180;2023-02-08T09:11:17;-0.40;1.00
14057;DHT22;7103;54.300;10.180;2023-02-08T09:13:44;-0.30;1.00
14057;DHT22;7103;54.300;10.180;2023-02-08T09:16:16;-0.30;1.00
14057;DHT22;7103;54.300;10.180;2023-02-08T09:18:43;-0.20;1.00
14057;DHT22;7103;54.300;10.180;2023-02-08T09:21:13;-0.10;1.00
14057;DHT22;7103;54.300;10.180;2023-02-08T09:23:40;-0.10;1.00
14057;DHT22;7103;54.300;10.180;2023-02-08T09:26:10;0.00;1.00
14057;DHT22;7103;54.300;10.180;2023-02-08T09:28:37;0.00;1.00
14057;DHT22;7103;54.300;10.180;2023-02-08T09:31:19;0.20;1.00
14057;DHT22;7103;54.300;10.180;2023-02-08T09:33:48;1.30;1.00
14057;DHT22;7103;54.300;10.180;2023-02-08T09:36:15;2.60;1.00
14057;DHT22;7103;54.300;10.180;2023-02-08T09:38:43;3.70;1.00
14057;DHT22;7103;54.300;10.180;2023-02-08T09:46:39;5.10;1.00
14057;DHT22;7103;54.300;10.180;2023-02-08T09:49:12;4.90;1.00
14057;DHT22;7103;54.300;10.180;2023-02-08T09:51:54;4.90;1.00
14057;DHT22;7103;54.300;10.180;2023-02-08T09:54:32;5.10;1.00
14057;DHT22;7103;54.300;10.180;2023-02-08T09:57:05;5.30;1.00
14057;DHT22;7103;54.300;10.180;2023-02-08T09:59:35;5.60;1.00
14057;DHT22;7103;54.300;10.180;2023-02-08T10:02:30;5.80;1.00
14057;DHT22;7103;54.300;10.180;2023-02-08T10:05:02;5.80;1.00
14057;DHT22;7103;54.300;10.180;2023-02-08T10:07:30;5.90;1.00
14057;DHT22;7103;54.300;10.180;2023-02-08T10:10:00;6.10;1.00
14057;DHT22;7103;54.300;10.180;2023-02-08T10:12:31;6.40;1.00
14057;DHT22;7103;54.300;10.180;2023-02-08T10:27:12;5.60;1.00
14057;DHT22;7103;54.300;10.180;2023-02-08T10:32:38;5.60;1.00
14057;DHT22;7103;54.300;10.180;2023-02-08T10:35:16;5.60;1.00
14057;DHT22;7103;54.300;10.180;2023-02-08T10:37:45;5.50;1.00
14057;DHT22;7103;54.300;10.180;2023-02-08T10:40:30;5.60;1.00
14057;DHT22;7103;54.300;10.180;2023-02-08T10:46:31;5.70;1.00
14057;DHT22;7103;54.300;10.180;2023-02-08T10:49:15;5.80;1.00
14057;DHT22;7103;54.300;10.180;2023-02-08T10:51:47;5.70;1.00
14057;DHT22;7103;54.300;10.180;2023-02-08T10:54:15;5.80;1.00
14057;DHT22;7103;54.300;10.180;2023-02-08T10:57:03;5.70;1.00
14057;DHT22;7103;54.300;10.180;2023-02-08T11:02:26;5.70;1.00
14057;DHT22;7103;54.300;10.180;2023-02-08T11:07:30;5.70;1.00
14057;DHT22;7103;54.300;10.180;2023-02-08T11:10:15;5.70;1.00
14057;DHT22;7103;54.300;10.180;2023-02-08T11:13:40;5.60;1.00
14057;DHT22;7103;54.300;10.180;2023-02-08T11:16:19;5.70;1.00
14057;DHT22;7103;54.300;10.180;2023-02-08T11:18:59;5.60;1.00
14057;DHT22;7103;54.300;10.180;2023-02-08T11:21:38;5.50;1.00
14057;DHT22;7103;54.300;10.180;2023-02-08T11:26:42;5.70;1.00
14057;DHT22;7103;54.300;10.180;2023-02-08T11:29:28;5.70;1.00
14057;DHT22;7103;54.300;10.180;2023-02-08T11:34:36;5.60;1.00
14057;DHT22;7103;54.300;10.180;2023-02-08T11:37:23;5.90;1.00
14057;DHT22;7103;54.300;10.180;2023-02-08T11:39:58;5.90;1.00
14057;DHT22;7103;54.300;10.180;2023-02-08T11:42:34;5.90;1.00
14057;DHT22;7103;54.300;10.180;2023-02-08T11:45:03;5.90;1.00
14057;DHT22;7103;54.300;10.180;2023-02-08T11:47:34;5.80;1.00
14057;DHT22;7103;54.300;10.180;2023-02-08T11:50:07;5.80;1.00
14057;DHT22;7103;54.300;10.180;2023-02-08T11:52:54;5.70;1.00
14057;DHT22;7103;54.300;10.180;2023-02-08T11:55:28;5.70;1.00
14057;DHT22;7103;54.300;10.180;2023-02-08T12:01:11;5.70;1.00
14057;DHT22;7103;54.300;10.180;2023-02-08T12:03:43;5.70;1.00
14057;DHT22;7103;54.300;10.180;2023-02-08T12:15:46;5.60;1.00
14057;DHT22;7103;54.300;10.180;2023-02-08T12:18:39;5.60;1.00
14057;DHT22;7103;54.300;10.180;2023-02-08T12:21:20;5.60;1.00
14057;DHT22;7103;54.300;10.180;2023-02-08T12:23:55;5.70;1.00
14057;DHT22;7103;54.300;10.180;2023-02-08T12:26:55;5.60;1.00
14057;DHT22;7103;54.300;10.180;2023-02-08T12:45:01;5.60;1.00
14057;DHT22;7103;54.300;10.180;2023-02-08T12:50:48;5.50;1.00
14057;DHT22;7103;54.300;10.180;2023-02-08T12:53:31;5.50;1.00
14057;DHT22;7103;54.300;10.180;2023-02-08T12:56:04;5.50;1.00
14057;DHT22;7103;54.300;10.180;2023-02-08T12:58:43;5.40;1.00
14057;DHT22;7103;54.300;10.180;2023-02-08T13:01:33;5.40;1.00
14057;DHT22;7103;54.300;10.180;2023-02-08T13:04:14;5.50;1.00
14057;DHT22;7103;54.300;10.180;2023-02-08T13:06:51;5.40;1.00
14057;DHT22;7103;54.300;10.180;2023-02-08T13:09:27;5.40;1.00
14057;DHT22;7103;54.300;10.180;2023-02-08T13:12:07;5.60;1.00
14057;DHT22;7103;54.300;10.180;2023-02-08T13:17:22;5.50;1.00
14057;DHT22;7103;54.300;10.180;2023-02-08T13:22:30;5.40;1.00
14057;DHT22;7103;54.300;10.180;2023-02-08T13:24:59;5.40;1.00
14057;DHT22;7103;54.300;10.180;2023-02-08T13:27:33;5.50;1.00
14057;DHT22;7103;54.300;10.180;2023-02-08T13:30:00;5.60;1.00
14057;DHT22;7103;54.300;10.180;2023-02-08T13:32:37;5.70;1.00
14057;DHT22;7103;54.300;10.180;2023-02-08T13:35:16;5.50;1.00
14057;DHT22;7103;54.300;10.180;2023-02-08T13:38:03;5.40;1.00
14057;DHT22;7103;54.300;10.180;2023-02-08T13:40:34;5.40;1.00
14057;DHT22;7103;54.300;10.180;2023-02-08T13:43:08;5.40;1.00
14057;DHT22;7103;54.300;10.180;2023-02-08T13:45:59;5.30;1.00
14057;DHT22;7103;54.300;10.180;2023-02-08T13:48:26;5.30;1.00
14057;DHT22;7103;54.300;10.180;2023-02-08T13:50:54;5.30;1.00
14057;DHT22;7103;54.300;10.180;2023-02-08T13:56:08;5.30;1.00
14057;DHT22;7103;54.300;10.180;2023-02-08T13:58:58;5.30;1.00
14057;DHT22;7103;54.300;10.180;2023-02-08T14:01:29;5.20;1.00
14057;DHT22;7103;54.300;10.180;2023-02-08T14:09:45;5.30;1.00
14057;DHT22;7103;54.300;10.180;2023-02-08T14:12:39;5.20;1.00
14057;DHT22;7103;54.300;10.180;2023-02-08T14:17:49;5.30;1.00
14057;DHT22;7103;54.300;10.180;2023-02-08T14:20:20;5.30;1.00
14057;DHT22;7103;54.300;10.180;2023-02-08T14:22:57;5.20;1.00
14057;DHT22;7103;54.300;10.180;2023-02-08T14:25:28;5.30;1.00
14057;DHT22;7103;54.300;10.180;2023-02-08T14:28:00;5.20;1.00
14057;DHT22;7103;54.300;10.180;2023-02-08T14:30:32;5.30;1.00
14057;DHT22;7103;54.300;10.180;2023-02-08T14:35:32;5.10;1.00
14057;DHT22;7103;54.300;10.180;2023-02-08T14:45:53;5.00;1.00
14057;DHT22;7103;54.300;10.180;2023-02-08T14:48:27;5.00;1.00
14057;DHT22;7103;54.300;10.180;2023-02-08T14:53:28;5.10;1.00
14057;DHT22;7103;54.300;10.180;2023-02-08T14:56:43;5.00;1.00
14057;DHT22;7103;54.300;10.180;2023-02-08T14:59:14;5.00;1.00
14057;DHT22;7103;54.300;10.180;2023-02-08T15:01:42;5.00;1.00
14057;DHT22;7103;54.300;10.180;2023-02-08T15:04:12;4.90;1.00
14057;DHT22;7103;54.300;10.180;2023-02-08T15:09:41;4.90;1.00
14057;DHT22;7103;54.300;10.180;2023-02-08T15:12:25;4.80;1.00
14057;DHT22;7103;54.300;10.180;2023-02-08T15:14:54;4.80;1.00
14057;DHT22;7103;54.300;10.180;2023-02-08T15:17:33;4.70;1.00
14057;DHT22;7103;54.300;10.180;2023-02-08T15:20:05;4.60;1.00
14057;DHT22;7103;54.300;10.180;2023-02-08T15:22:35;4.70;1.00
14057;DHT22;7103;54.300;10.180;2023-02-08T15:25:23;4.70;1.00
14057;DHT22;7103;54.300;10.180;2023-02-08T15:27:59;4.50;1.00
14057;DHT22;7103;54.300;10.180;2023-02-08T15:30:37;4.40;1.00
14057;DHT22;7103;54.300;10.180;2023-02-08T15:33:12;4.40;1.00
14057;DHT22;7103;54.300;10.180;2023-02-08T15:35:41;4.40;1.00
14057;DHT22;7103;54.300;10.180;2023-02-08T15:38:18;4.30;1.00
14057;DHT22;7103;54.300;10.180;2023-02-08T15:41:07;4.20;1.00
14057;DHT22;7103;54.300;10.180;2023-02-08T15:43:36;4.10;1.00
14057;DHT22;7103;54.300;10.180;2023-02-08T15:46:19;4.10;1.00
14057;DHT22;7103;54.300;10.180;2023-02-08T15:48:48;4.10;1.00
14057;DHT22;7103;54.300;10.180;2023-02-08T15:51:16;4.10;1.00
14057;DHT22;7103;54.300;10.180;2023-02-08T15:53:48;4.10;1.00
14057;DHT22;7103;54.300;10.180;2023-02-08T15:56:20;4.10;1.00
14057;DHT22;7103;54.300;10.180;2023-02-08T15:59:03;3.90;1.00
14057;DHT22;7103;54.300;10.180;2023-02-08T16:01:32;3.80;1.00
14057;DHT22;7103;54.300;10.180;2023-02-08T16:04:02;3.70;1.00
14057;DHT22;7103;54.300;10.180;2023-02-08T16:06:43;3.70;1.00
14057;DHT22;7103;54.300;10.180;2023-02-08T16:09:28;3.60;1.00
14057;DHT22;7103;54.300;10.180;2023-02-08T16:11:58;3.60;1.00
14057;DHT22;7103;54.300;10.180;2023-02-08T16:14:26;3.50;1.00
14057;DHT22;7103;54.300;10.180;2023-02-08T16:16:57;3.40;1.00
14057;DHT22;7103;54.300;10.180;2023-02-08T16:19:29;3.30;1.00
14057;DHT22;7103;54.300;10.180;2023-02-08T16:22:27;3.30;1.00
14057;DHT22;7103;54.300;10.180;2023-02-08T16:25:21;3.10;1.00
14057;DHT22;7103;54.300;10.180;2023-02-08T16:27:49;3.20;1.00
14057;DHT22;7103;54.300;10.180;2023-02-08T16:30:18;3.20;1.00
14057;DHT22;7103;54.300;10.180;2023-02-08T16:32:46;3.30;1.00
14057;DHT22;7103;54.300;10.180;2023-02-08T16:35:21;3.20;1.00
14057;DHT22;7103;54.300;10.180;2023-02-08T16:37:54;3.20;1.00
14057;DHT22;7103;54.300;10.180;2023-02-08T16:40:41;3.30;1.00
14057;DHT22;7103;54.300;10.180;2023-02-08T16:43:21;3.30;1.00
14057;DHT22;7103;54.300;10.180;2023-02-08T16:48:36;3.10;1.00
14057;DHT22;7103;54.300;10.180;2023-02-08T16:51:20;3.00;1.00
14057;DHT22;7103;54.300;10.180;2023-02-08T16:53:49;3.10;1.00
14057;DHT22;7103;54.300;10.180;2023-02-08T16:56:17;3.20;1.00
14057;DHT22;7103;54.300;10.180;2023-02-08T16:58:44;3.20;1.00
14057;DHT22;7103;54.300;10.180;2023-02-08T17:01:12;3.20;1.00
14057;DHT22;7103;54.300;10.180;2023-02-08T17:03:40;3.10;1.00
14057;DHT22;7103;54.300;10.180;2023-02-08T17:06:23;3.00;1.00
14057;DHT22;7103;54.300;10.180;2023-02-08T17:08:50;3.00;1.00
14057;DHT22;7103;54.300;10.180;2023-02-08T17:11:17;2.80;1.00
14057;DHT22;7103;54.300;10.180;2023-02-08T17:13:44;2.90;1.00
14057;DHT22;7103;54.300;10.180;2023-02-08T17:16:18;2.80;1.00
14057;DHT22;7103;54.300;10.180;2023-02-08T17:18:46;2.70;1.00
14057;DHT22;7103;54.300;10.180;2023-02-08T17:21:13;2.70;1.00
14057;DHT22;7103;54.300;10.180;2023-02-08T17:23:40;2.70;1.00
14057;DHT22;7103;54.300;10.180;2023-02-08T17:26:16;2.80;1.00
14057;DHT22;7103;54.300;10.180;2023-02-08T17:28:45;2.80;1.00
14057;DHT22;7103;54.300;10.180;2023-02-08T17:31:13;2.80;1.00
14057;DHT22;7103;54.300;10.180;2023-02-08T17:33:40;2.80;1.00
14057;DHT22;7103;54.300;10.180;2023-02-08T17:36:08;2.60;1.00
14057;DHT22;7103;54.300;10.180;2023-02-08T17:38:37;2.60;1.00
14057;DHT22;7103;54.300;10.180;2023-02-08T17:41:11;2.60;1.00
14057;DHT22;7103;54.300;10.180;2023-02-08T17:43:38;2.60;1.00
14057;DHT22;7103;54.300;10.180;2023-02-08T17:46:15;2.60;1.00
14057;DHT22;7103;54.300;10.180;2023-02-08T17:48:42;2.60;1.00
14057;DHT22;7103;54.300;10.180;2023-02-08T17:51:14;2.40;1.00
14057;DHT22;7103;54.300;10.180;2023-02-08T17:53:42;2.40;1.00
14057;DHT22;7103;54.300;10.180;2023-02-08T17:56:14;2.40;1.00
14057;DHT22;7103;54.300;10.180;2023-02-08T17:58:42;2.50;1.00
14057;DHT22;7103;54.300;10.180;2023-02-08T18:01:16;2.50;1.00
14057;DHT22;7103;54.300;10.180;2023-02-08T18:03:45;2.40;1.00
14057;DHT22;7103;54.300;10.180;2023-02-08T18:06:12;2.50;1.00
14057;DHT22;7103;54.300;10.180;2023-02-08T18:08:40;2.40;1.00
14057;DHT22;7103;54.300;10.180;2023-02-08T18:11:18;2.30;1.00
14057;DHT22;7103;54.300;10.180;2023-02-08T18:13:50;2.30;1.00
14057;DHT22;7103;54.300;10.180;2023-02-08T18:16:20;2.40;1.00
14057;DHT22;7103;54.300;10.180;2023-02-08T18:18:47;2.30;1.00
14057;DHT22;7103;54.300;10.180;2023-02-08T18:21:20;2.20;1.00
14057;DHT22;7103;54.300;10.180;2023-02-08T18:23:48;2.20;1.00
14057;DHT22;7103;54.300;10.180;2023-02-08T18:26:17;2.20;1.00
14057;DHT22;7103;54.300;10.180;2023-02-08T18:28:44;2.30;1.00
14057;DHT22;7103;54.300;10.180;2023-02-08T18:31:13;2.30;1.00
14057;DHT22;7103;54.300;10.180;2023-02-08T18:33:42;2.20;1.00
14057;DHT22;7103;54.300;10.180;2023-02-08T18:36:10;2.20;1.00
14057;DHT22;7103;54.300;10.180;2023-02-08T18:38:42;2.10;1.00